Fairland, Indiana
Current Conditions -  °F | °C
As of 4:53 PM on Thursday 27 Nov 2014 (Local Time) from KGEZ Reporting Station
Overcast Overcast  
Wind Chill: 16°   Ceiling: 2600
Heat Index: 29°   Visibility: 10mi
Dew Point: 19°   Wind: 18mph
Humidity: 67%   Direction: 300°WNW
Pressure: 30.35"   Gusts: NA
Location:  39.59°N, 85.86°W
Report Text: KGEZ 272153Z AUTO 30016KT 10SM OVC026 M02/M07 A3035 RMK AO2 SLP287 T10171072
Loading
Personal Weather Stations






























Interactive Weather Map New forecast layout! Learn more

10-Day Weather Forecast

Advertisements
Track Severe Weather on mobile